Banbury 15 External Results
Banbury
15 Mar 20
Head to Head - to compare runners check 2 or more boxes below and then click
              
 
15M
PosGunChipName AG ClubSBPBHC  
184:2884:28Sullivan Smith SBV40MCambridge & Coleridge84:281:21:44-2.7 
284:5084:50James Bolton SBV45MWoodstock/Abingdon84:5083:22-2.1 
387:4087:40Aaron Burgess SBV35MOxford City87:4087:29-0.9 
487:4887:47James Eve PBV45MHeadington87:4787:470.3 
588:0488:04Paul Leverton PBV40MAlchester88:0488:040.2 
689:3989:39Matthew Lock PBU23MWitney89:3989:39-0.5 
791:3691:36Robert Lloyd Smith PBV45MSutton Runners91:3691:360.6 
891:4991:48Carl Tucker PBSENMBuckingham & Stowe/Royal Air Force91:4891:481.4 
992:0692:06Julien Lhomme SBV40MHeadington/France92:061:24:321.1 
1092:1292:12Alex Briscoe PBSENMWhite Horse92:1292:120.6 
1192:2792:27Henry Sleight PBSENMCherwell92:2792:270.9 
1294:1894:17Mark Tyroll  V40MEnysham    
1394:4694:45Harry Geddes  SENMHeadington94:4594:455.6 
1495:0295:01Richard Simkiss  V35MMcCarkiss Endurance Project95:0184:342.9 
1595:1195:11Joanne Mccandless  V35W     
1696:1796:16Paul Jegou  V45MWhite Horse/Radley/Southern Counties Vets96:1686:441.5 
1796:2796:23Marcus Hill  V45MHeadington96:2396:232.7 
1896:5796:53Carl Gaden PBV55MHeadington96:5396:532.8 
1998:1098:09Adam Smith  SENMWoodstock Harriers Athletics Club    
2098:5898:58Luke Sherlock  SENM     
2199:1299:10Michael Garry  V40MOxford City99:1099:103.9 
2299:4299:39David Ingram  SENMAlchester99:3999:393.8 
2399:4899:48Ian Thomas SBV55MCherwell99:4894:594.1 
2499:5799:54Mark Rogers  V40MCherwell99:5499:5410.8 
251:41:021:41:00Phil Gray  V50MOxford City1:41:001:41:004.9 
261:41:071:40:55Siddiq Khan  V40MHeadington1:40:551:40:555.6 
271:41:271:41:24Richard Taylor  SENMKidlington1:41:241:41:243.6 
281:41:341:41:34Steve Marklew T13/F13 PBV55MRoyal Sutton Coldfield/Civil Service1:41:341:41:344.6 
291:41:421:41:31Peter Green  V40MEynsham1:41:311:41:315.5 
301:41:531:41:49Kate Allred PBV50WEynsham1:41:491:41:495.5 
311:42:111:42:10David Cantwell  V50MWoodstock1:42:1090:444.4 
321:42:141:42:12William Morgan  V45MCherwell1:42:121:42:124.7 
331:42:181:42:12Chris James  V50M     
341:42:231:42:15Jamie Collins  SENM     
351:42:421:42:38Kevin Cremona-howard  V35MHeadington1:42:381:42:385.0 
361:42:541:42:42Richard Hume PBV45MEynsham1:42:421:42:425.7 
371:43:041:43:04Andrew Stickley SBV40MAlchester1:43:041:40:453.0 
381:43:071:43:06Nick Macey  V50MCherwell1:43:061:43:065.3 
391:43:131:43:13Benedict Pollard SBV45MEynsham1:43:1395:046.3 
401:43:191:43:18George Adams  SENM     
411:43:341:43:32Chris Bedford  V55MAbingdon1:43:3298:585.8 
421:43:531:43:50Isabel Stubbs  SENWWitney1:43:501:43:506.6 
431:43:541:43:44Douglas Simpson  V50MHeadington1:43:441:43:445.8 
441:44:201:44:17Ian Hunter  V45MAlchester1:44:1796:414.7 
451:44:271:44:14Mike Healey  V45MHeadington1:44:141:44:145.9 
461:44:511:44:49Benedict Heaney  SENMCherwell1:44:491:44:497.5 
471:46:481:46:33Simon Marc Leech  V55MWhite Horse1:46:331:45:285.4 
481:47:021:47:02Craig Gibbin PBV45MWitney1:47:021:47:027.7 
491:47:451:47:44Myshola Kirkham  V40WCoventry1:47:441:47:446.9 
501:48:081:48:02Robert Green  V50MWitney Road Runners    
511:48:191:48:16Claire True  SENWAlchester1:48:161:48:166.6 
521:49:381:49:38Tom Preskett PBV40MWoodstock1:49:381:49:3824.1 
531:49:421:49:39Luthfer Rahman PBV45MKidlington1:49:391:49:399.7 
541:49:591:49:59James Willard SBV35MAbingdon1:49:591:42:234.3 
551:50:021:50:02Dewi Thomas SBV40MCherwell1:50:021:41:458.3 
561:50:071:50:02Dean Slatter PBSENMCherwell1:50:021:50:0210.7 
571:50:411:50:41Katy Jones  SENW     
581:50:451:50:33Justin Davey PBV45MHeadington1:50:331:50:338.8 
591:51:071:51:01Sophie Mccarthy  V35W     
601:51:191:51:04James Greenaway  SENM     
611:51:251:51:22Jessica Sleight  SENWCherwell Runners & Joggers    
621:52:191:52:14Zoe Kemp  V40WHuman Energy1:52:141:52:146.3 
631:52:291:52:29Rachel Whiting PBV35WWhite Horse1:52:291:52:2910.6 
641:52:441:52:37Paul Ainslie  V55MWitney1:52:371:49:3810.8 
651:52:511:52:48Rachel Piper PBV40WCherwell1:52:481:52:489.5 
661:53:351:53:25Madeleine Ding PBV35WHeadington1:53:251:53:259.5 
671:53:401:53:29Rochene West  V35W     
681:53:571:53:48Yvonne Morris  V45WHeadington1:53:481:53:4810.2 
691:54:001:53:58Danny Batchelor  V55MCherwell1:53:581:52:438.4 
701:54:261:54:04Chris Coomer  V40MPeckham Striders    
711:54:361:54:22Daniel Jones  SENM     
721:54:491:54:49Gyles Horner PBV45MCherwell1:54:491:54:4911.1 
731:55:411:55:38Andrew Lister PBV50MKidlington1:55:381:55:389.0 
741:55:491:55:42John Inskip PBV50MCherwell1:55:421:55:4215.3 
751:55:511:55:45Ian Lancaster  V40MAlchester1:55:451:55:458.1 
761:55:521:55:46Vincente Bayliss  SENMAlchester1:55:461:46:017.7 
771:56:011:55:45Simon Walker  V40MEynsham Road Runners    
781:56:041:55:44Nicholas Sheard  V50MEynsham1:55:441:55:448.6 
791:56:191:56:08Andrea Finnigan  V40WKidlington1:56:081:55:4210.8 
801:56:311:56:27Rosie Davies  SENWAbingdon Athletics Club    
811:56:401:56:35Chris Lamb  V35MAbingdon1:56:351:56:3515.4 
821:56:551:56:42Julian Tranter  V40M     
831:57:281:57:28Lee Davies  V50M     
841:57:341:57:34David Warlow SBV50MHook Norton1:57:3494:538.5 
851:57:481:57:42Jonathan White  V40MAlchester1:57:421:57:4210.4 
861:58:031:58:03Toby Goss PBSENMEynsham1:58:031:58:039.3 
871:58:131:58:07Nick Bullard  V50M     
881:58:151:58:05Lee Needle PBV35MKidlington1:58:051:58:0513.5 
891:58:471:58:44Stuart Nweman  SENM     
901:58:571:58:47Steve Cowls  V60MHeadington/Oxford City1:58:471:56:579.7 
911:59:041:58:56Jade Hewlett PBSENWWitney/Nottingham Uni1:58:561:58:5610.0 
921:59:161:59:12Loe Brook-Little  V50MWoodstock Harriers Athletics Club    
931:59:191:59:14Will Benfold  V35MAbingdon1:59:141:59:1410.1 
942:00:051:59:46Alan Harrison  V50MWoodstock1:59:461:51:2111.5 
952:00:111:59:59Pippa Mack  V35WWhite Horse1:59:591:57:4910.0 
962:00:122:00:12Anna Bedford PBSENWWhite Horse2:00:122:00:1212.0 
972:00:142:00:14Jonathan Carruthers SBSENMBanbury2:00:141:57:269.1 
982:01:102:00:52Duncan Hague  V40MCherwell2:00:522:00:5211.7 
992:01:152:01:06Paul Smart  V60MHuman Energy2:01:062:01:0611.9 
1002:01:172:01:03Richard Palmer  V55M100 Marathon Club2:01:032:01:0317.8 
1012:01:282:01:28Charlotte Sugden PBSENWHeadington2:01:282:01:2810.3 
1022:01:502:01:34Shaun Byrne PBV35MCherwell2:01:342:01:3416.4 
1032:02:222:02:08Olga Meadows  V50WWhite Horse2:02:082:02:0812.5 
1042:02:242:02:24Neil Medler  SENM     
1052:02:382:02:17Alastair Graham  V40MEynsham2:02:172:02:1711.7 
1062:02:392:02:33Hanna Kennedy  SENWCherwell2:02:332:02:3312.6 
1072:03:002:02:43Clare Hazell PBV45WWhite Horse2:02:432:02:4315.4 
1082:03:472:03:42Laura Mathers  SENWBicester Tri2:03:422:03:4217.4 
1092:03:512:03:35Robert Lukehurst  V55MLonely Goat RC2:03:352:03:3515.1 
1102:03:552:03:45Phil Kimber  V70MHeadington2:03:452:03:4512.3 
1112:05:022:04:53James Hackney  SENMWitney2:04:532:04:5312.3 
1122:05:222:05:22Clare Curnow PBV55WCherwell/Sparkhill2:05:222:05:2212.4 
1132:05:392:05:39Victoria Richardson PBSENWAbingdon2:05:392:05:398.3 
1142:06:092:05:53Nik Roberts  V45MKidlington2:05:532:05:5313.5 
1152:06:212:06:12Kevin Naughton  V65MSphinx2:06:121:49:2211.9 
1162:06:372:06:26Andrew Smith  V40M     
1172:06:402:06:28Katie Smith  SENW     
1182:06:412:06:31Rachel Temple-Fry  SENWDaventry Road Runners2:06:312:06:3113.9 
1192:06:432:06:34Ben Oliver  V35MDaventry Road Runners2:06:342:06:349.7 
1202:06:572:06:54Emmanuel Heraud  V45MCherwell2:06:542:06:5411.6 
1212:06:582:06:39Lizzie Phipps  SENWCherwell Runners & Joggers    
1222:07:012:06:48Claire Philpott  V35W     
1232:07:122:06:54Andy Robinson  V50M     
1242:07:472:07:38Andy Green  SENMWitney2:07:382:07:3811.1 
1252:08:152:07:57Stanley Johnston  V50MEynsham2:07:572:07:579.8 
1262:08:212:08:05Linda Mcdonald  V45W     
1272:08:272:08:07Alexander Price  SENMCherwell2:08:072:08:0714.4 
1282:09:082:09:00Helen French  V50WCherwell2:09:002:09:0019.8 
1292:09:202:09:11Lucy Harris  V45WWitney2:09:112:03:2413.8 
1302:09:212:09:02Adam Standley  SENMHayes & Harlington2:09:022:09:0214.6 
1312:09:232:09:08Georgina Phillips  V35WWhite Horse2:09:082:09:0816.7 
1322:09:252:09:05Amanda Mann  V45WSwindon2:09:052:09:0518.1 
1332:09:312:09:11Kate Malem  V35W     
1342:09:562:09:50John Moss  V40MBanbury2:09:502:09:5018.0 
1352:10:152:10:15Tim Dickson  V50MHeadington Road Runners    
1362:10:432:10:43Martha Horan  SENWWitney Road Runners    
1372:10:582:10:47Mitch Timms  V60MSphinx2:10:471:52:4410.8 
1382:11:072:11:02Andrew Sleight  V60MCherwell2:11:022:11:0216.8 
1392:11:072:10:57Anna Mackin  V35WEynsham2:10:572:06:5712.2 
1402:11:122:11:12Martin Woods PBV40MCherwell2:11:122:11:1210.5 
1412:11:132:11:06Lisa Holland  V50WWitney2:11:062:04:5914.7 
1422:12:052:12:05Michele Hustler PBV50WWitney2:12:052:12:0516.0 
1432:12:582:12:33David Jarrett PBV60MSilson2:12:332:12:3315.0 
1442:13:032:12:52David Adams  V55MAbingdon2:12:522:12:5213.6 
1452:13:372:13:22Melanie Cassidy  V40WWitney2:13:222:03:5614.3 
1462:14:282:14:23Dawn Osborne PBV50WCherwell2:14:232:14:2316.3 
1472:14:292:14:24Colin Hirons  V50MCherwell Runners & Joggers    
1482:14:402:14:27Ian Homer  V50MHeadington2:14:272:14:2715.0 
1492:14:412:14:26Jill Thomas PBV45WHeadington2:14:262:14:2615.3 
1502:14:412:14:31Robin Collins  V55WHeadington2:14:312:14:3115.4 
1512:15:332:15:13Suzanne Taylor  V40WAdderbury2:15:132:09:0714.0 
1522:15:432:15:43Wendy Millatt SBV60WAbingdon2:15:432:11:0415.1 
1532:15:542:15:54Rob Schofield  V60M     
1542:16:302:16:14Stephen Roberts  V55MWitney2:16:142:16:1414.0 
1552:16:532:16:46Natalie Sanchez  V35W     
1562:16:532:16:38Lee Vanstone  SENMWitney2:16:382:16:3818.0 
1572:17:442:17:32Chris Lyon  V45MAbingdon2:17:322:17:3217.6 
1582:17:522:17:41Kimberley Pickett  SENWBicester Tri2:17:412:17:4126.3 
1592:18:212:18:03Robert Earle  SENM     
1602:18:442:18:27Malcolm Brown  V60MHook Norton2:18:271:54:0917.2 
1612:18:532:18:53Jane Garton SBV45WEynsham2:18:532:11:5414.9 
1622:18:582:18:37Tracy Lawrence  V45WLonely Goat RC2:18:372:18:3723.9 
1632:19:092:18:48Robert Pattenden  SENM     
1642:19:242:19:11Paul Molyneaux  V65MWitney2:19:112:19:1114.7 
1652:21:222:21:17Huw Jones  SENM     
1662:22:442:22:35Joanne Abbot  V35W     
1672:22:452:22:36Catherine Warren  V40WAbingdon2:22:362:22:3618.4 
1682:22:462:22:39Katie James  V35W     
1692:23:082:23:08Sean Collins PBV55MHeadington2:23:082:23:0818.6 
1702:23:192:23:07Kelly Homer  V45WHeadington2:23:072:23:0721.0 
1712:23:272:23:11Sam Allum  SENM     
1722:23:292:23:11Peter Allum  V50M     
1732:23:402:23:23Sharon Christie PBV55WWitney2:23:232:23:2320.1 
1742:23:522:23:28Terry Goffin  SENM     
1752:24:132:24:13David Shadbolt  V60M     
1762:25:062:24:50Paul Rushby  V55MWitney2:24:502:21:1620.4 
1772:25:402:25:20Keiron White  V40M     
1782:25:502:25:41Lucy Hamilton  V60WAbingdon2:25:412:23:2619.9 
1792:26:372:26:17Rosie Isom  SENWKidlington2:26:172:26:1717.7 
1802:26:392:26:26Hannah Grayson PBSENWHeadington2:26:262:26:2619.9 
1812:27:132:26:59John Green  V50MWitney2:26:592:26:5917.9 
1822:27:232:27:03Rachel Jealock  V45WKidlington Running Club    
1832:27:342:27:11Clifford Parkin  V50M     
1842:27:382:27:31Vicky Jones  V45W     
1852:27:482:27:28Jack Eaton  SENMCherwell2:27:282:27:2814.6 
1862:28:212:28:10Tyrone Lewis  V45MCherwell2:28:102:28:1031.2 
1872:28:332:28:24Paul Manders  V40M     
1882:28:482:28:48Allan Lock SBV75MMidland Masters2:28:482:12:4621.6 
1892:28:482:28:39Alistair James  V40M     
1902:29:332:29:15Denise Shepherd  V45WCherwell2:29:152:29:1524.1 
1912:29:342:29:16Annie Heaney  SENWCherwell Runners & Joggers    
1922:29:462:29:46Oliver Godfrey  V50M     
1932:29:562:29:35Sharon Bedford  V55WWhite Horse2:29:352:21:5422.0 
1942:30:042:29:43David Maundrell  V40MStraford Upon Avon Athletics Club    
1952:30:182:30:06Debbie Gilbert  V35WBicester Tri2:30:062:30:0619.7 
1962:30:292:30:11Carol Robinson  V45W     
1972:32:142:31:59Jo Justice  V45WHuman Energy2:31:592:31:5922.2 
1982:32:252:32:20Louise Stewart PBV50WStratford-upon-Avon2:32:202:32:2019.2 
1992:34:022:33:55Annelies Henshall  V35WAlchester2:33:552:19:1820.8 
2002:34:042:33:55Emma Nelson  V35WAlchester2:33:552:21:2420.0 
2012:34:542:34:38Geoff Owen  V50MHuman Energy2:34:382:34:3821.7 
2022:36:012:35:47Graham Day  V55MHeadington2:35:472:19:0723.4 
2032:37:522:37:34Colin Hancox  V55MEynsham2:37:342:18:1215.2 
2042:38:592:38:59Glyndwr Jones  V70M     
2052:42:282:42:15Nick Cherry  V55MAlchester2:42:152:42:1518.2 
2062:43:132:42:56Sarah L Ledingham PBV55WHeadington2:42:562:42:5622.1 
2072:43:502:43:30Julie Astrid Keyser  V60WHeadington2:43:302:43:2928.2 
2082:43:562:43:37Joanne Smith  V45WKidlington Running Club    
2092:44:422:44:23Rachel Rahman  V45WKidlington2:44:232:37:3620.8 
2102:44:442:44:24Rose Robinson  V40WKidlington2:44:242:44:2431.4 
2112:44:462:44:46Chris Large PBV35MLeighton Buzzard2:44:462:44:4612.0 
2122:45:362:45:25Andrew Kelly  V35MAlchester2:45:252:45:2517.0 
2132:47:262:47:03Emma Exelby  V45W     
2142:47:262:47:26Vincent Calloway  V40M     
2152:47:462:47:46Lisa Moulder PBSENWHook Norton2:47:462:47:4623.8 
2162:58:482:58:26Linda Thompson  V55W     
2172:58:492:58:27Val Thomas  V55W     
2183:01:563:01:33Jeff Finnie  V50MLonely Goat RC3:01:333:01:3315.4 
2193:02:163:02:16Alison Osborne PBV50WWhite Horse3:02:163:02:1644.0